DW4946 Seffner FL US current weather conditions

sailwx.info

Wind from 346

Air temperature 18.3° C
Dewpoint 17.0° C

Last reported at 2019-Dec-14 13:05 UTC.
Time now 2019-Dec-14 13:43 UTC

Location: N 27°60' W 082°16'.
View on Google Maps.

See reports from other nearby stations

  
Tides and Currents Weather Stations Pressure Air Temp Water Temp Dewpoint Dewpoint Depression Visibility Wind Speed Wind Dir Waves Ship Positions
date/time (UTC)wind fromknots sea level pressurealtimeterstation pressurevisibilityair tempwater tempwave heightnotes
2019-Dec-14 13:05 346 18.3
2019-Dec-14 13:01 345 18.3
2019-Dec-14 12:55 342 18.3
2019-Dec-14 12:50 339 18.3
2019-Dec-14 12:46 355 18.9
2019-Dec-14 12:40 009 1 gusting 4 18.9
2019-Dec-14 12:35 333 0 gusting 3 19.4
2019-Dec-14 12:32 017 0 gusting 9 19.4
2019-Dec-14 12:25 304 2 gusting 9 20.0
2019-Dec-14 12:20 355 1 gusting 7 20.0
2019-Dec-14 12:16 042 0 gusting 7 20.0
2019-Dec-14 12:10 346 1 gusting 6 20.0
2019-Dec-14 12:05 309 1 gusting 5 20.0
2019-Dec-14 12:01 267 1 gusting 6 20.0
2019-Dec-14 11:55 263 1 gusting 6 20.0
2019-Dec-14 11:50 263 1 gusting 10 20.0
2019-Dec-14 11:45 251 1 gusting 7 20.6
2019-Dec-14 11:40 279 1 gusting 9 20.6
2019-Dec-14 11:35 293 3 gusting 9 21.1
2019-Dec-14 11:30 242 3 gusting 10 21.7
2019-Dec-14 11:25 208 3 gusting 10 21.7
2019-Dec-14 11:20 276 0 gusting 5 21.7
2019-Dec-14 10:55 207 1 gusting 5 21.7
2019-Dec-14 10:50 097 1 gusting 6 21.7
2019-Dec-14 10:40 221 4 gusting 11 21.7
2019-Dec-14 10:35 236 1 gusting 6 21.7
2019-Dec-14 10:30 217 21.7
2019-Dec-14 10:25 157 21.7
2019-Dec-14 10:20 213 0 gusting 3 21.7
2019-Dec-14 10:10 250 0 gusting 2 21.7
2019-Dec-14 10:05 200 21.7
2019-Dec-14 10:00 205 21.7
2019-Dec-14 09:55 180 0 gusting 4 21.7
2019-Dec-14 09:48 218 0 gusting 3 21.7
2019-Dec-14 09:40 229 0 gusting 4 21.7
2019-Dec-14 09:35 208 1 gusting 5 21.7
2019-Dec-14 09:32 198 0 gusting 4 21.7
2019-Dec-14 09:25 286 0 gusting 4 21.7
2019-Dec-14 09:20 173 21.7
2019-Dec-14 09:06 229 0 gusting 4 21.7
2019-Dec-14 09:01 201 1 gusting 4 21.7
2019-Dec-14 08:51 205 21.7
2019-Dec-14 08:46 195 0 gusting 4 21.7
2019-Dec-14 08:40 207 21.7
2019-Dec-14 08:35 155 21.7
2019-Dec-14 08:32 173 21.7
2019-Dec-14 08:25 212 21.7
2019-Dec-14 08:20 218 21.7
2019-Dec-14 08:16 279 21.7
2019-Dec-14 08:10 226 0 gusting 6 21.7
2019-Dec-14 08:05 236 1 gusting 9 21.7
2019-Dec-14 08:02 211 2 gusting 9 21.7
2019-Dec-14 07:55 213 0 gusting 6 21.7
2019-Dec-14 07:50 247 1 gusting 6 21.7
2019-Dec-14 07:46 157 1 gusting 6 21.7
2019-Dec-14 07:40 218 0 gusting 8 21.1
2019-Dec-14 07:35 107 0 gusting 3 21.1
2019-Dec-14 07:31 209 21.1
2019-Dec-14 07:25 220 0 gusting 3 21.1
2019-Dec-14 07:21 280 20.6
2019-Dec-14 07:15 170 0 gusting 4 20.6
2019-Dec-14 07:10 131 20.6
2019-Dec-14 07:05 125 20.6
2019-Dec-14 07:00 152 20.6
2019-Dec-14 06:55 142 20.6
2019-Dec-14 06:50 142 20.6
2019-Dec-14 06:46 142 20.6
2019-Dec-14 06:40 142 20.6
2019-Dec-14 06:35 142 0 gusting 2 20.6
2019-Dec-14 06:31 142 20.6
2019-Dec-14 06:25 142 20.6
2019-Dec-14 06:20 142 20.6
2019-Dec-14 06:15 127 0 gusting 3 21.1
2019-Dec-14 06:10 234 20.6
2019-Dec-14 06:05 234 20.6
2019-Dec-14 06:01 236 20.6
2019-Dec-14 05:55 140 20.6
2019-Dec-14 05:50 139 20.6
2019-Dec-14 05:45 139 0 gusting 2 20.6
2019-Dec-14 05:40 160 20.6
2019-Dec-14 05:35 160 20.6
2019-Dec-14 05:30 236 21.1
2019-Dec-14 05:25 236 21.1
2019-Dec-14 05:20 236 21.1
2019-Dec-14 05:16 094 0 gusting 2 20.6
2019-Dec-14 05:10 223 20.6
2019-Dec-14 05:05 213 20.6
2019-Dec-14 05:00 213 20.6
2019-Dec-14 04:55 240 20.6
2019-Dec-14 04:50 207 0 gusting 2 20.6
2019-Dec-14 04:46 121 20.6
2019-Dec-14 04:40 148 20.6
2019-Dec-14 04:35 171 20.6
2019-Dec-14 04:30 214 20.6
2019-Dec-14 04:25 157 20.6
2019-Dec-14 04:20 124 20.6
2019-Dec-14 04:15 125 20.0
2019-Dec-14 04:10 125 20.0
2019-Dec-14 04:05 125 20.0
2019-Dec-14 04:01 125 20.0
2019-Dec-14 03:55 123 19.4
2019-Dec-14 03:50 120 19.4
2019-Dec-14 03:45 144 19.4
2019-Dec-14 03:40 144 19.4
2019-Dec-14 03:35 107 19.4
2019-Dec-14 03:30 105 19.4
2019-Dec-14 03:25 140 20.0
2019-Dec-14 03:20 140 20.0
2019-Dec-14 03:15 140 19.4
2019-Dec-14 03:10 140 20.0
2019-Dec-14 03:05 140 20.0
2019-Dec-14 03:01 140 20.0
2019-Dec-14 02:50 140 19.4
2019-Dec-14 02:40 140 19.4
2019-Dec-14 02:35 192 19.4
2019-Dec-14 02:25 275 19.4
2019-Dec-14 02:20 275 19.4
2019-Dec-14 02:10 275 19.4
2019-Dec-14 02:05 275 19.4
2019-Dec-14 01:55 275 19.4
2019-Dec-14 01:50 275 19.4
2019-Dec-14 01:45 275 19.4
2019-Dec-14 01:40 275 20.0
2019-Dec-14 01:35 275 20.0
2019-Dec-14 01:30 275 20.0
2019-Dec-14 01:25 275 20.0
2019-Dec-14 01:20 279 20.0
2019-Dec-14 01:10 130 20.0
2019-Dec-14 01:05 130 20.0
2019-Dec-14 00:55 118 20.0
2019-Dec-14 00:45 271 20.0
2019-Dec-14 00:40 243 20.0
2019-Dec-14 00:35 221 20.6
2019-Dec-14 00:30 126 20.0
2019-Dec-14 00:25 154 20.6
2019-Dec-14 00:20 150 20.6
2019-Dec-14 00:10 219 20.6
2019-Dec-14 00:05 219 20.6
2019-Dec-14 00:00 219 20.6
2019-Dec-13 23:55 219 20.6
2019-Dec-13 23:50 109 20.6
2019-Dec-13 23:40 109 20.6
2019-Dec-13 23:35 109 20.6
2019-Dec-13 23:30 109 20.6
2019-Dec-13 23:25 109 20.6
2019-Dec-13 23:20 110 20.6
2019-Dec-13 23:10 211 20.6
2019-Dec-13 23:05 211 0 gusting 2 20.6
2019-Dec-13 23:00 211 20.6
2019-Dec-13 22:55 211 20.6
2019-Dec-13 22:50 211 20.6
2019-Dec-13 22:40 211 21.1
2019-Dec-13 22:35 211 21.1
2019-Dec-13 22:25 211 21.1
2019-Dec-13 22:20 211 21.1
2019-Dec-13 22:15 211 21.1
2019-Dec-13 22:10 211 21.1
2019-Dec-13 22:05 211 21.1
2019-Dec-13 22:00 131 21.1
2019-Dec-13 21:55 131 21.1
2019-Dec-13 21:50 239 21.1
2019-Dec-13 21:41 240 21.1
2019-Dec-13 21:36 240 21.1
2019-Dec-13 21:32 163 21.1
2019-Dec-13 21:25 162 0 gusting 3 21.1
2019-Dec-13 21:21 120 21.1
2019-Dec-13 21:17 207 0 gusting 4 21.7
2019-Dec-13 21:11 131 0 gusting 4 21.7
2019-Dec-13 21:06 148 21.7
2019-Dec-13 21:02 121 21.7
2019-Dec-13 20:56 117 21.7
2019-Dec-13 20:50 090 21.7
2019-Dec-13 20:47 292 21.7
2019-Dec-13 20:41 291 21.7
2019-Dec-13 20:36 291 21.7
2019-Dec-13 20:33 291 21.7
2019-Dec-13 20:25 291 21.7
2019-Dec-13 20:20 291 0 gusting 2 21.7
2019-Dec-13 20:17 294 21.7
2019-Dec-13 20:10 293 21.7
2019-Dec-13 20:06 293 21.7
2019-Dec-13 20:01 294 21.7
2019-Dec-13 19:55 293 21.7
2019-Dec-13 19:50 294 21.7
2019-Dec-13 19:47 294 21.7
2019-Dec-13 19:40 294 21.7
2019-Dec-13 19:35 293 21.7
2019-Dec-13 19:32 293 21.7
2019-Dec-13 19:21 293 21.7
2019-Dec-13 19:16 293 21.7
2019-Dec-13 19:10 294 21.7
2019-Dec-13 19:05 294 21.7
2019-Dec-13 19:01 293 21.7
2019-Dec-13 18:55 293 21.7
2019-Dec-13 18:51 294 21.7
2019-Dec-13 18:47 294 21.7
2019-Dec-13 18:40 293 21.7
2019-Dec-13 18:35 293 21.7
2019-Dec-13 18:31 293 21.7
2019-Dec-13 18:26 294 21.7
2019-Dec-13 18:21 293 21.7
2019-Dec-13 18:16 293 21.7
2019-Dec-13 18:10 294 21.7
2019-Dec-13 18:05 294 21.7
2019-Dec-13 18:01 294 21.7
2019-Dec-13 17:55 293 21.7
2019-Dec-13 17:50 293 21.7
2019-Dec-13 17:47 294 21.7
2019-Dec-13 17:40 294 21.7
2019-Dec-13 17:35 293 21.7
2019-Dec-13 17:31 293 21.7
2019-Dec-13 17:25 293 21.7
2019-Dec-13 17:20 293 21.7
2019-Dec-13 17:17 293 21.7
2019-Dec-13 17:10 294 21.7
2019-Dec-13 17:05 293 21.7
2019-Dec-13 17:00 294 21.7
2019-Dec-13 16:55 294 21.1
2019-Dec-13 16:51 293 21.1
2019-Dec-13 16:46 294 21.1
2019-Dec-13 16:40 293 21.1
2019-Dec-13 16:35 293 21.1
2019-Dec-13 16:31 293 21.1
2019-Dec-13 16:25 293 21.1
2019-Dec-13 16:20 293 21.1
2019-Dec-13 16:15 292 21.1
2019-Dec-13 16:10 293 21.1
2019-Dec-13 16:05 293 20.6
2019-Dec-13 16:01 292 20.6
2019-Dec-13 15:55 340 20.6
2019-Dec-13 15:50 340 20.6
2019-Dec-13 15:40 340 20.6
2019-Dec-13 15:35 340 20.6
2019-Dec-13 15:25 340 20.6
2019-Dec-13 15:20 340 20.6
2019-Dec-13 15:15 127 20.6
2019-Dec-13 15:10 127 20.6
2019-Dec-13 15:05 127 20.6
2019-Dec-13 15:00 128 20.6
2019-Dec-13 14:50 128 20.6
2019-Dec-13 14:45 128 20.0
2019-Dec-13 14:40 127 20.0
2019-Dec-13 14:35 127 20.0
2019-Dec-13 14:30 127 20.0
2019-Dec-13 14:25 127 20.0
2019-Dec-13 14:20 128 20.0
2019-Dec-13 14:10 127 20.0
2019-Dec-13 14:05 127 20.0
2019-Dec-13 13:55 127 19.4
2019-Dec-13 13:50 128 19.4
2019-Dec-13 13:45 128 19.4
2019-Dec-13 13:40 127 19.4
2019-Dec-13 13:35 128 19.4
2019-Dec-13 13:25 128 19.4
2019-Dec-13 13:20 127 19.4
2019-Dec-13 13:10 128 19.4
2019-Dec-13 13:05 128 18.9
2019-Dec-13 13:00 128 18.9
2019-Dec-13 12:55 127 18.9
2019-Dec-13 12:50 127 18.9
2019-Dec-13 12:45 127 18.9
2019-Dec-13 12:40 127 18.9
2019-Dec-13 12:35 127 18.9
2019-Dec-13 12:30 128 18.9
2019-Dec-13 12:25 122 18.9
2019-Dec-13 12:20 005 18.9
2019-Dec-13 12:15 005 18.9
2019-Dec-13 12:10 005 18.9
2019-Dec-13 12:05 009 18.9
2019-Dec-13 12:00 009 18.9
2019-Dec-13 11:55 005 18.9
2019-Dec-13 11:50 009 18.9
2019-Dec-13 11:45 005 18.9
2019-Dec-13 11:40 005 18.9
2019-Dec-13 11:35 005 18.9
2019-Dec-13 11:30 005 18.9
2019-Dec-13 11:25 005 18.9
2019-Dec-13 11:20 005 18.9
2019-Dec-13 11:11 005 18.9
2019-Dec-13 11:06 005 18.9
2019-Dec-13 11:02 009 18.3
2019-Dec-13 10:56 009 18.9
2019-Dec-13 10:51 009 18.9
2019-Dec-13 10:46 009 18.9
2019-Dec-13 10:41 009 18.3
2019-Dec-13 10:35 009 18.3
2019-Dec-13 10:31 009 0 gusting 1 18.3
2019-Dec-13 10:25 005 18.3
2019-Dec-13 10:20 005 18.9
2019-Dec-13 10:18 005 18.9
2019-Dec-13 10:10 005 18.9
2019-Dec-13 10:05 005 18.9
2019-Dec-13 10:01 005 18.9
2019-Dec-13 09:50 005 18.9
2019-Dec-13 09:48 005 18.9
2019-Dec-13 09:40 005 18.3
2019-Dec-13 09:35 037 18.3
2019-Dec-13 09:32 036 18.3
2019-Dec-13 09:25 037 18.3
2019-Dec-13 09:20 037 18.3
2019-Dec-13 09:17 037 18.3
2019-Dec-13 09:10 037 18.3
2019-Dec-13 09:06 037 18.9
2019-Dec-13 08:55 037 18.9
2019-Dec-13 08:50 036 18.9
2019-Dec-13 08:47 037 18.9
2019-Dec-13 08:40 037 18.9
2019-Dec-13 08:35 030 18.9
2019-Dec-13 08:31 027 18.9
2019-Dec-13 08:25 027 18.9
2019-Dec-13 08:21 027 18.9
2019-Dec-13 08:16 027 18.9
2019-Dec-13 08:10 027 18.9
2019-Dec-13 08:06 027 18.9
2019-Dec-13 08:01 027 18.9
2019-Dec-13 07:55 027 18.9
2019-Dec-13 07:50 027 19.4
2019-Dec-13 07:47 027 19.4
2019-Dec-13 07:40 027 19.4
2019-Dec-13 07:35 027 19.4
2019-Dec-13 07:32 027 19.4
2019-Dec-13 07:25 027 19.4
2019-Dec-13 07:20 027 19.4
2019-Dec-13 07:05 027 19.4
2019-Dec-13 07:02 027 0 gusting 2 19.4
2019-Dec-13 06:55 026 19.4
2019-Dec-13 06:50 026 19.4
2019-Dec-13 06:45 026 19.4
2019-Dec-13 06:40 026 19.4
2019-Dec-13 06:35 026 19.4
2019-Dec-13 06:31 026 19.4
2019-Dec-13 06:25 026 19.4
2019-Dec-13 06:20 026 19.4
2019-Dec-13 06:16 026 19.4
2019-Dec-13 06:10 026 19.4
2019-Dec-13 06:05 026 19.4
2019-Dec-13 06:01 026 19.4
2019-Dec-13 05:55 026 20.0
2019-Dec-13 05:50 026 20.0
2019-Dec-13 05:45 014 20.0
2019-Dec-13 05:40 036 0 gusting 3 20.0
2019-Dec-13 05:35 046 1 gusting 3 20.0
2019-Dec-13 05:30 039 0 gusting 2 20.0
2019-Dec-13 05:25 034 20.0
2019-Dec-13 05:20 034 20.0
2019-Dec-13 05:05 034 20.0
2019-Dec-13 05:00 034 20.0
2019-Dec-13 04:55 034 20.0
2019-Dec-13 04:50 034 20.0
2019-Dec-13 04:45 034 20.0
2019-Dec-13 04:40 032 20.0
2019-Dec-13 04:35 032 20.0
2019-Dec-13 04:31 032 20.0
2019-Dec-13 04:25 032 20.0
2019-Dec-13 04:20 035 20.0
2019-Dec-13 04:15 035 20.0
2019-Dec-13 04:10 042 20.6
2019-Dec-13 04:05 057 0 gusting 5 20.6
2019-Dec-13 03:55 037 20.6
2019-Dec-13 03:46 068 1 gusting 6 20.6
2019-Dec-13 03:40 056 2 gusting 9 20.6
2019-Dec-13 03:35 035 3 gusting 9 20.6
2019-Dec-13 03:30 074 2 gusting 5 20.6
2019-Dec-13 03:25 063 2 gusting 5 20.6
2019-Dec-13 03:20 028 2 gusting 6 20.6
2019-Dec-13 03:10 056 1 gusting 8 20.6
2019-Dec-13 03:05 052 0 gusting 7 20.6
2019-Dec-13 03:00 059 2 gusting 7 20.6
2019-Dec-13 02:50 052 2 gusting 6 20.6
2019-Dec-13 02:45 042 1 gusting 5 20.6
2019-Dec-13 02:40 048 2 gusting 4 20.6
2019-Dec-13 02:35 044 1 gusting 3 20.6
2019-Dec-13 02:25 053 2 gusting 5 20.6
2019-Dec-13 02:15 050 21.1
2019-Dec-13 02:10 050 1 gusting 5 21.1
2019-Dec-13 02:05 045 3 gusting 5 21.1
2019-Dec-13 02:00 044 1 gusting 4 21.1
2019-Dec-13 01:55 034 0 gusting 3 21.1
2019-Dec-13 01:50 066 21.1
2019-Dec-13 01:40 038 21.1
2019-Dec-13 01:35 037 21.1
2019-Dec-13 01:25 049 1 gusting 5 21.1
2019-Dec-13 01:20 047 21.1
2019-Dec-13 01:15 044 21.1
2019-Dec-13 01:10 038 0 gusting 4 21.1
2019-Dec-13 01:05 047 1 gusting 5 21.1
2019-Dec-13 00:55 017 0 gusting 7 21.1
2019-Dec-13 00:50 049 3 gusting 11 21.1
2019-Dec-13 00:45 052 3 gusting 11 21.1
2019-Dec-13 00:40 040 2 gusting 7 21.1
2019-Dec-13 00:35 049 4 gusting 9 21.1
2019-Dec-13 00:25 061 6 gusting 12 21.1
2019-Dec-13 00:20 053 2 gusting 12 21.1
2019-Dec-13 00:15 055 4 gusting 13 21.1
2019-Dec-13 00:10 022 3 gusting 9 21.1
2019-Dec-13 00:05 051 4 gusting 11 21.1
2019-Dec-12 23:55 051 2 gusting 9 21.1
2019-Dec-12 23:50 054 3 gusting 8 21.1
2019-Dec-12 23:40 065 4 gusting 10 21.1
2019-Dec-12 23:35 052 2 gusting 10 21.1
2019-Dec-12 23:30 048 3 gusting 10 21.1
2019-Dec-12 23:25 057 3 gusting 11 21.1
2019-Dec-12 23:20 055 1 gusting 8 21.1
2019-Dec-12 23:15 047 3 gusting 11 21.1
2019-Dec-12 23:10 057 3 gusting 14 21.1
2019-Dec-12 23:05 048 6 gusting 14 21.1
2019-Dec-12 23:00 044 4 gusting 13 21.1
2019-Dec-12 22:55 050 6 gusting 13 21.1
2019-Dec-12 22:40 038 6 gusting 12 21.1
2019-Dec-12 22:36 053 5 gusting 10 21.1
2019-Dec-12 22:32 028 2 gusting 10 21.1
2019-Dec-12 22:26 042 3 gusting 13 21.1
2019-Dec-12 22:21 029 5 gusting 13 21.1
2019-Dec-12 22:16 036 4 gusting 11 21.1
2019-Dec-12 22:10 024 4 gusting 9 21.1
2019-Dec-12 22:05 026 3 gusting 9 21.1
2019-Dec-12 22:02 028 3 gusting 10 21.1
2019-Dec-12 21:56 355 3 gusting 10 21.1
2019-Dec-12 21:50 039 2 gusting 9 21.1
2019-Dec-12 21:46 044 4 gusting 13 21.1
2019-Dec-12 21:41 063 7 gusting 13 21.1
2019-Dec-12 21:36 040 3 gusting 13 21.1
2019-Dec-12 21:33 038 6 gusting 13 21.1
2019-Dec-12 21:25 043 4 gusting 13 21.1
2019-Dec-12 21:20 045 7 gusting 13 21.1
2019-Dec-12 21:17 058 6 gusting 13 21.7
2019-Dec-12 21:10 083 2 gusting 14 21.7
2019-Dec-12 21:02 067 1 gusting 6 21.7
2019-Dec-12 20:55 042 22.2
2019-Dec-12 20:51 032 2 gusting 8 22.2
2019-Dec-12 20:48 011 2 gusting 11 22.8
2019-Dec-12 20:40 063 1 gusting 11 22.8
2019-Dec-12 20:36 034 3 gusting 14 22.8
2019-Dec-12 20:31 060 4 gusting 13 22.8
2019-Dec-12 20:25 088 5 gusting 13 22.8
2019-Dec-12 20:20 062 2 gusting 13 22.8
2019-Dec-12 20:17 049 1 gusting 19 22.8
2019-Dec-12 20:10 021 7 gusting 20 23.3
2019-Dec-12 20:05 066 11 gusting 20 23.3
2019-Dec-12 20:01 064 11 gusting 19 24.4
2019-Dec-12 19:55 042 6 gusting 13 24.4
2019-Dec-12 19:50 047 4 gusting 13 24.4
2019-Dec-12 19:48 081 2 gusting 10 24.4
2019-Dec-12 19:40 027 1 gusting 10 24.4
2019-Dec-12 19:35 031 6 gusting 10 25.0
2019-Dec-12 19:31 064 5 gusting 8 25.0
2019-Dec-12 19:25 035 2 gusting 11 24.4
2019-Dec-12 19:20 035 3 gusting 10 23.9
2019-Dec-12 19:16 067 1 gusting 9 23.3
2019-Dec-12 19:10 066 2 gusting 7 23.9
2019-Dec-12 19:05 047 1 gusting 8 24.4
2019-Dec-12 19:01 059 3 gusting 8 24.4
2019-Dec-12 18:55 024 1 gusting 6 24.4
2019-Dec-12 18:50 036 1 gusting 11 24.4
2019-Dec-12 18:47 051 5 gusting 13 24.4
2019-Dec-12 18:41 049 9 gusting 13 24.4
2019-Dec-12 18:35 031 6 gusting 13 24.4
2019-Dec-12 18:31 062 0 gusting 10 24.4
2019-Dec-12 18:25 010 2 gusting 13 23.9
2019-Dec-12 18:20 086 1 gusting 15 23.9
2019-Dec-12 18:17 055 7 gusting 15 23.9
2019-Dec-12 18:10 056 6 gusting 13 23.9
2019-Dec-12 18:06 051 7 gusting 12 23.9
2019-Dec-12 18:03 067 5 gusting 11 24.4
2019-Dec-12 17:56 053 4 gusting 11 24.4
2019-Dec-12 17:50 009 2 gusting 12 24.4
2019-Dec-12 17:48 055 1 gusting 7 24.4
2019-Dec-12 17:40 068 1 gusting 9 24.4
2019-Dec-12 17:35 060 2 gusting 13 24.4
2019-Dec-12 17:32 022 6 gusting 13 24.4
2019-Dec-12 17:25 056 1 gusting 6 23.9
2019-Dec-12 17:20 061 0 gusting 8 23.9
2019-Dec-12 17:17 065 3 gusting 8 23.9
2019-Dec-12 17:10 086 3 gusting 11 23.9
2019-Dec-12 17:06 032 1 gusting 11 23.9
2019-Dec-12 17:01 096 2 gusting 9 23.9
2019-Dec-12 16:55 053 4 gusting 9 23.9
2019-Dec-12 16:50 049 1 gusting 11 23.3
2019-Dec-12 16:47 025 4 gusting 17 23.3
2019-Dec-12 16:40 042 2 gusting 17 23.3
2019-Dec-12 16:35 047 6 gusting 13 23.3
2019-Dec-12 16:30 028 3 gusting 12 23.3
2019-Dec-12 16:25 059 6 gusting 12 22.8
2019-Dec-12 16:20 052 2 gusting 18 22.8
2019-Dec-12 16:15 051 6 gusting 18 22.8
2019-Dec-12 16:10 034 6 gusting 13 22.8
2019-Dec-12 16:05 049 5 gusting 11 22.8
2019-Dec-12 16:00 061 6 gusting 12 22.8
2019-Dec-12 15:55 068 3 gusting 12 22.2
2019-Dec-12 15:50 026 3 gusting 9 22.2
2019-Dec-12 15:45 051 5 gusting 11 21.7
2019-Dec-12 15:40 041 6 gusting 14 21.7
2019-Dec-12 15:35 051 6 gusting 17 21.1
2019-Dec-12 15:31 039 7 gusting 16 21.1
2019-Dec-12 15:25 043 4 gusting 13 21.1
2019-Dec-12 15:20 035 3 gusting 15 21.1
2019-Dec-12 15:15 065 9 gusting 15 21.1
2019-Dec-12 15:10 044 9 gusting 15 21.1
2019-Dec-12 15:00 046 12 gusting 18 21.1
2019-Dec-12 14:55 055 13 gusting 18 20.6
2019-Dec-12 14:50 062 11 gusting 18 20.6
2019-Dec-12 14:40 069 10 gusting 16 20.6
2019-Dec-12 14:35 061 8 gusting 14 20.0
2019-Dec-12 14:25 049 11 gusting 18 20.0
2019-Dec-12 14:20 036 6 gusting 16 20.0
2019-Dec-12 14:10 047 5 gusting 12 20.0
2019-Dec-12 14:05 355 6 gusting 18 19.4
2019-Dec-12 14:00 056 10 gusting 18 19.4
2019-Dec-12 13:55 058 8 gusting 17 19.4
2019-Dec-12 13:50 069 3 gusting 14 19.4
2019-Dec-12 13:41 046 9 gusting 13 18.9
2019-Dec-12 13:35 044 6 gusting 15 18.9
2019-Dec-12 13:32 046 6 gusting 14 18.9
2019-Dec-12 13:26 053 5 gusting 13 18.9
2019-Dec-12 13:20 056 7 gusting 16 18.9
2019-Dec-12 13:16 049 8 gusting 16 18.9
2019-Dec-12 13:11 066 4 gusting 12 18.3
2019-Dec-12 13:05 038 6 gusting 12 18.3
2019-Dec-12 13:02 021 5 gusting 13 18.3